Saint Michael, MN (55376)

3:48 PM CDT on April 27, 2017 (GMT -0500)
Primary | | Change Station

Elev 945 ft 45.23 °N, 93.65 °W | Updated 9 seconds ago

Overcast
Overcast
33.3 °F
Feels Like 28 °F
N
5.4
Wind Variable Wind from West
Gusts 9.4 mph

Today
High -- | Low -- °F
--% Chance of Precip.
Yesterday
High -- | Low -- °F
Precip. -- in
Pressure 29.64 in
Visibility 10.0 miles
Clouds Overcast 2300 ft
Windchill 28 °F
Dew Point 24 °F
Humidity 68%
Rainfall 0.00 in
Snow Depth Not available.
6:09 AM 8:16 PM
Waxing Crescent, 3% visible
METAR KCFE 272034Z AUTO 27011KT 10SM OVC023 00/M04 A2964 RMK AO2 T00041043
Pressure 29.64 in
Visibility 10.0 miles
Clouds Overcast 2300 ft
Windchill 28 °F
Dew Point 24 °F
Humidity 68%
Rainfall 0.00 in
Snow Depth Not available.
6:09 AM 8:16 PM
Waxing Crescent, 3% visible
METAR KCFE 272034Z AUTO 27011KT 10SM OVC023 00/M04 A2964 RMK AO2 T00041043

Get Severe Weather Alerts

Thanks for signing up!

Be on the lookout for a verification email in your inbox.

You'll start receiving the daily forecast at 8 AM.

×

10-Day Weather Forecast

Almanac

Astronomy

Apr. 27, 2017 Rise Set
Actual Time
Civil Twilight
Nautical Twilight
Astronomical Twilight
Moon
Length of Visible Light
Length of Day
Tomorrow will be .
, % of the Moon is Illuminated

Today's Extremes

State Highs State Lows

Community

WunderPhotos

WunderBlog® & News

Nearby

Air Quality

  Air Quality AQ Index Pollutant
Not available.

Snow Depth

Station Depth Elevation

Earthquake Activity

City Distance Mag. Time & Date
Minimum magnitude displayed is 2.5.

Coastal Water Temperatures

Place Temperature

Stations

Nearby Weather Stations

Station Location Temp. Windchill Dew Point Humidity Wind Precip. Elev Updated Type
                   

Watches & Warnings

There are currently no watches in effect.